createdAt,value
2019-03-17T00:01:41.344Z,11.05
2019-03-17T00:04:49.973Z,11.02
2019-03-17T00:07:58.694Z,10.99
2019-03-17T00:11:07.346Z,10.98
2019-03-17T00:14:15.951Z,10.99
2019-03-17T00:17:25.235Z,10.99
2019-03-17T00:20:44.426Z,10.98
2019-03-17T00:23:53.232Z,11.02
2019-03-17T00:27:02.036Z,11.03
2019-03-17T00:30:21.379Z,11.09
2019-03-17T00:33:31.091Z,10.94
2019-03-17T00:36:39.479Z,10.86
2019-03-17T00:39:58.316Z,10.94
2019-03-17T00:43:06.857Z,10.97
2019-03-17T00:46:15.560Z,11.05
2019-03-17T00:49:24.161Z,11.01
2019-03-17T00:52:32.801Z,11.08
2019-03-17T00:55:41.532Z,11.16
2019-03-17T00:58:50.149Z,11.19
2019-03-17T01:02:08.929Z,11.23
2019-03-17T01:05:17.599Z,11.17
2019-03-17T01:08:26.222Z,11.09
2019-03-17T01:11:35.072Z,11.06
2019-03-17T01:14:43.775Z,11.07
2019-03-17T01:17:52.472Z,11.00
2019-03-17T01:21:01.088Z,10.96
2019-03-17T01:24:10.467Z,10.82
2019-03-17T01:27:19.230Z,10.79
2019-03-17T01:30:27.835Z,10.70
2019-03-17T01:33:36.454Z,10.80
2019-03-17T01:36:43.675Z,10.75
2019-03-17T01:39:52.380Z,10.81
2019-03-17T01:43:00.995Z,10.89
2019-03-17T01:46:09.691Z,10.89
2019-03-17T01:49:18.313Z,10.95
2019-03-17T01:52:37.065Z,11.05
2019-03-17T01:55:45.768Z,10.97
2019-03-17T01:58:54.359Z,10.98
2019-03-17T02:02:03.068Z,11.01
2019-03-17T02:05:21.216Z,11.01
2019-03-17T02:08:22.082Z,11.04
2019-03-17T02:11:30.676Z,11.05
2019-03-17T02:14:39.326Z,11.05
2019-03-17T02:17:47.937Z,11.01
2019-03-17T02:21:06.817Z,11.07
2019-03-17T02:24:15.435Z,11.06
2019-03-17T02:27:24.146Z,11.03
2019-03-17T02:30:32.670Z,11.11
2019-03-17T02:33:41.291Z,11.11
2019-03-17T02:36:49.969Z,11.09
2019-03-17T02:39:58.580Z,11.15
2019-03-17T02:43:17.381Z,11.16
2019-03-17T02:46:26.063Z,11.19
2019-03-17T02:49:34.577Z,11.15
2019-03-17T02:52:43.077Z,11.19
2019-03-17T02:55:51.739Z,11.22
2019-03-17T02:59:00.368Z,11.18
2019-03-17T03:02:19.162Z,11.25
2019-03-17T03:05:27.649Z,11.23
2019-03-17T03:08:36.264Z,11.24
2019-03-17T03:11:44.904Z,11.17
2019-03-17T03:14:53.541Z,11.16
2019-03-17T03:18:02.223Z,11.14
2019-03-17T03:21:20.886Z,11.15
2019-03-17T03:24:29.896Z,11.05
2019-03-17T03:27:38.607Z,11.00
2019-03-17T03:30:47.237Z,10.98
2019-03-17T03:33:54.349Z,10.99
2019-03-17T03:37:03.093Z,10.89
2019-03-17T03:40:11.943Z,10.98
2019-03-17T03:43:20.540Z,10.94
2019-03-17T03:46:29.292Z,10.89
2019-03-17T03:49:37.890Z,10.93
2019-03-17T03:52:46.579Z,10.93
2019-03-17T03:55:55.320Z,10.95
2019-03-17T03:59:04.034Z,10.96
2019-03-17T04:02:12.642Z,10.93
2019-03-17T04:05:32.945Z,10.98
2019-03-17T04:08:41.675Z,10.89
2019-03-17T04:11:51.960Z,10.84
2019-03-17T04:15:00.726Z,10.82
2019-03-17T04:18:09.579Z,10.74
2019-03-17T04:21:18.223Z,10.72
2019-03-17T04:24:27.059Z,10.80
2019-03-17T04:27:35.613Z,10.68
2019-03-17T04:30:44.317Z,10.76
2019-03-17T04:33:53.077Z,10.80
2019-03-17T04:37:01.750Z,10.80
2019-03-17T04:40:09.758Z,10.85
2019-03-17T04:43:18.266Z,10.84
2019-03-17T04:46:27.000Z,10.86
2019-03-17T04:49:35.633Z,10.93
2019-03-17T04:52:44.233Z,10.92
2019-03-17T04:55:52.939Z,10.90
2019-03-17T04:59:01.707Z,10.97
2019-03-17T05:02:13.371Z,11.00
2019-03-17T05:05:20.801Z,10.97
2019-03-17T05:08:39.652Z,11.09
2019-03-17T05:11:48.239Z,11.00
2019-03-17T05:14:56.883Z,11.04
2019-03-17T05:18:04.085Z,11.05
2019-03-17T05:21:12.665Z,10.92
2019-03-17T05:24:21.273Z,10.88
2019-03-17T05:27:30.009Z,10.68
2019-03-17T05:30:38.652Z,10.66
2019-03-17T05:33:47.275Z,10.64
2019-03-17T05:37:07.056Z,10.64
2019-03-17T05:40:15.772Z,10.50
2019-03-17T05:43:24.443Z,10.52
2019-03-17T05:46:33.060Z,10.40
2019-03-17T05:49:51.917Z,10.45
2019-03-17T05:53:00.501Z,10.28
2019-03-17T05:56:09.203Z,10.26
2019-03-17T05:59:19.781Z,10.15
2019-03-17T06:02:28.527Z,10.19
2019-03-17T06:05:37.222Z,10.17
2019-03-17T06:08:45.846Z,10.05
2019-03-17T06:11:54.425Z,10.02
2019-03-17T06:15:03.056Z,10.00
2019-03-17T06:18:11.636Z,9.99
2019-03-17T06:21:30.464Z,10.08
2019-03-17T06:24:38.972Z,10.06
2019-03-17T06:27:47.660Z,10.00
2019-03-17T06:30:56.261Z,10.10
2019-03-17T06:34:04.870Z,10.03
2019-03-17T06:37:13.567Z,9.99
2019-03-17T06:40:22.190Z,9.90
2019-03-17T06:43:41.038Z,9.95
2019-03-17T06:46:49.694Z,9.81
2019-03-17T06:49:58.187Z,9.72
2019-03-17T06:53:06.763Z,9.74
2019-03-17T06:56:15.456Z,9.41
2019-03-17T06:59:23.927Z,9.04
2019-03-17T07:02:42.828Z,8.88
2019-03-17T07:05:51.462Z,8.69
2019-03-17T07:08:59.931Z,8.33
2019-03-17T07:12:08.515Z,8.27
2019-03-17T07:15:17.121Z,8.17
2019-03-17T07:18:35.731Z,8.10
2019-03-17T07:21:44.398Z,7.91
2019-03-17T07:24:52.967Z,7.87
2019-03-17T07:28:01.650Z,7.85
2019-03-17T07:31:10.137Z,7.78
2019-03-17T07:34:18.701Z,7.79
2019-03-17T07:37:37.575Z,7.75
2019-03-17T07:40:46.197Z,7.66
2019-03-17T07:43:54.662Z,7.53
2019-03-17T07:47:03.328Z,7.48
2019-03-17T07:50:12.154Z,7.54
2019-03-17T07:53:20.881Z,7.45
2019-03-17T07:56:29.517Z,7.42
2019-03-17T07:59:37.991Z,7.38
2019-03-17T08:02:58.131Z,7.50
2019-03-17T08:06:06.889Z,7.51
2019-03-17T08:09:15.548Z,7.51
2019-03-17T08:12:24.200Z,7.56
2019-03-17T08:15:32.887Z,7.57
2019-03-17T08:18:41.515Z,7.65
2019-03-17T08:21:50.144Z,7.71
2019-03-17T08:25:09.526Z,7.99
2019-03-17T08:28:28.162Z,7.93
2019-03-17T08:31:38.167Z,8.02
2019-03-17T08:34:46.650Z,8.00
2019-03-17T08:37:55.308Z,7.93
2019-03-17T08:41:03.953Z,7.96
2019-03-17T08:44:22.814Z,8.05
2019-03-17T08:47:32.132Z,8.20
2019-03-17T08:50:50.902Z,8.37
2019-03-17T08:54:00.514Z,8.38
2019-03-17T08:57:09.134Z,8.59
2019-03-17T09:00:27.894Z,8.65
2019-03-17T09:03:36.517Z,8.68
2019-03-17T09:06:45.145Z,8.64
2019-03-17T09:09:53.751Z,8.70
2019-03-17T09:13:04.295Z,8.67
2019-03-17T09:16:12.658Z,8.71
2019-03-17T09:19:21.379Z,8.75
2019-03-17T09:22:30.008Z,8.79
2019-03-17T09:25:48.882Z,8.75
2019-03-17T09:28:57.411Z,8.70
2019-03-17T09:32:05.916Z,8.79
2019-03-17T09:35:13.582Z,8.81
2019-03-17T09:38:22.198Z,8.75
2019-03-17T09:41:30.967Z,8.71
2019-03-17T09:44:39.685Z,8.68
2019-03-17T09:48:26.527Z,8.81
2019-03-17T09:51:35.035Z,8.73
2019-03-17T09:54:53.602Z,8.76
2019-03-17T09:58:02.260Z,8.76
2019-03-17T10:01:10.870Z,8.67
2019-03-17T10:04:19.539Z,8.66
2019-03-17T10:07:28.148Z,8.82
2019-03-17T10:10:37.844Z,8.97
2019-03-17T10:13:47.479Z,9.09
2019-03-17T10:16:57.422Z,9.02
2019-03-17T10:20:05.312Z,8.99
2019-03-17T10:23:13.784Z,9.11
2019-03-17T10:26:22.526Z,9.11
2019-03-17T10:29:31.613Z,9.29
2019-03-17T10:32:40.125Z,9.35
2019-03-17T10:35:48.693Z,9.68
2019-03-17T10:39:12.578Z,10.18
2019-03-17T10:42:18.488Z,10.54
2019-03-17T10:45:27.249Z,11.03
2019-03-17T10:48:47.002Z,11.33
2019-03-17T10:52:25.101Z,11.68
2019-03-17T10:55:48.346Z,11.90
2019-03-17T11:03:21.712Z,11.41
2019-03-17T11:07:31.595Z,11.22
2019-03-17T11:11:12.887Z,11.75
2019-03-17T11:14:54.078Z,13.09
2019-03-17T11:18:53.636Z,13.34
2019-03-17T11:22:45.193Z,14.05
2019-03-17T11:25:59.215Z,14.90
2019-03-17T11:29:13.203Z,15.25
2019-03-17T11:32:24.164Z,13.99
2019-03-17T11:35:35.174Z,13.33
2019-03-17T11:38:48.255Z,13.96
2019-03-17T11:42:02.383Z,15.05
2019-03-17T11:45:15.207Z,15.92
2019-03-17T11:48:28.929Z,16.08
2019-03-17T11:51:44.146Z,15.49
2019-03-17T11:54:55.355Z,14.65
2019-03-17T11:58:06.235Z,14.11
2019-03-17T12:01:17.886Z,13.61
2019-03-17T12:04:28.943Z,12.20
2019-03-17T12:07:58.462Z,12.33
2019-03-17T12:11:14.736Z,13.23
2019-03-17T12:14:23.424Z,14.53
2019-03-17T12:17:32.053Z,15.09
2019-03-17T12:20:50.789Z,14.48
2019-03-17T12:23:59.412Z,13.95
2019-03-17T12:27:07.932Z,13.47
2019-03-17T12:30:21.633Z,12.79
2019-03-17T12:33:30.151Z,12.30
2019-03-17T12:36:38.656Z,12.04
2019-03-17T12:39:47.169Z,12.21
2019-03-17T12:43:06.120Z,13.40
2019-03-17T12:46:14.812Z,13.59
2019-03-17T12:49:23.422Z,13.27
2019-03-17T12:52:32.079Z,13.61
2019-03-17T12:55:40.637Z,14.77
2019-03-17T12:58:49.168Z,16.52
2019-03-17T13:02:07.899Z,17.59
2019-03-17T13:05:16.539Z,18.68
2019-03-17T13:08:25.173Z,18.91
2019-03-17T13:11:33.648Z,19.69
2019-03-17T13:14:42.194Z,19.77
2019-03-17T13:18:07.099Z,19.66
2019-03-17T13:21:15.730Z,18.54
2019-03-17T13:24:24.272Z,16.43
2019-03-17T13:27:32.768Z,15.60
2019-03-17T13:30:41.266Z,14.51
2019-03-17T13:34:00.955Z,14.05
2019-03-17T13:37:09.643Z,13.04
2019-03-17T13:40:28.349Z,12.92
2019-03-17T13:43:28.395Z,12.66
2019-03-17T13:46:47.433Z,12.98
2019-03-17T13:49:55.919Z,12.79
2019-03-17T13:53:04.416Z,12.56
2019-03-17T13:56:13.003Z,12.39
2019-03-17T13:59:21.498Z,12.15
2019-03-17T14:02:40.288Z,12.05
2019-03-17T14:05:49.028Z,11.73
2019-03-17T14:08:57.572Z,11.70
2019-03-17T14:12:06.072Z,11.50
2019-03-17T14:15:15.290Z,11.56
2019-03-17T14:18:23.840Z,11.65
2019-03-17T14:21:32.409Z,11.61
2019-03-17T14:24:40.875Z,11.80
2019-03-17T14:27:59.749Z,11.79
2019-03-17T14:31:08.249Z,11.74
2019-03-17T14:34:16.724Z,11.35
2019-03-17T14:37:25.406Z,11.20
2019-03-17T14:40:34.070Z,10.88
2019-03-17T14:43:42.603Z,10.63
2019-03-17T14:47:01.386Z,10.55
2019-03-17T14:50:13.171Z,10.28
2019-03-17T14:53:21.663Z,10.11
2019-03-17T14:56:30.239Z,10.24
2019-03-17T14:59:38.720Z,10.26
2019-03-17T15:02:57.509Z,10.25
2019-03-17T15:06:06.102Z,10.14
2019-03-17T15:09:14.698Z,9.99
2019-03-17T15:12:23.327Z,10.06
2019-03-17T15:15:32.065Z,10.05
2019-03-17T15:18:40.580Z,9.90
2019-03-17T15:21:59.261Z,10.01
2019-03-17T15:25:08.799Z,9.79
2019-03-17T15:28:17.287Z,9.46
2019-03-17T15:31:36.184Z,9.26
2019-03-17T15:34:48.410Z,9.00
2019-03-17T15:37:56.970Z,8.86
2019-03-17T15:41:17.596Z,8.76
2019-03-17T15:44:15.621Z,8.60
2019-03-17T15:47:24.175Z,8.58
2019-03-17T15:50:32.659Z,8.44
2019-03-17T15:53:51.723Z,8.63
2019-03-17T15:57:00.527Z,8.68
2019-03-17T16:00:24.674Z,8.83
2019-03-17T16:03:36.539Z,8.93
2019-03-17T16:06:45.185Z,8.87
2019-03-17T16:09:53.666Z,8.86
2019-03-17T16:13:02.192Z,8.85
2019-03-17T16:16:10.830Z,8.91
2019-03-17T16:19:29.488Z,8.90
2019-03-17T16:22:38.242Z,8.95
2019-03-17T16:25:46.858Z,9.00
2019-03-17T16:28:55.349Z,9.00
2019-03-17T16:32:03.820Z,8.91
2019-03-17T16:35:12.682Z,8.93
2019-03-17T16:38:21.546Z,8.81
2019-03-17T16:41:42.577Z,8.94
2019-03-17T16:44:41.436Z,8.91
2019-03-17T16:47:49.985Z,8.91
2019-03-17T16:50:59.703Z,8.93
2019-03-17T16:54:28.148Z,8.98
2019-03-17T16:57:44.682Z,8.92
2019-03-17T17:01:03.263Z,8.93
2019-03-17T17:04:23.359Z,8.90
2019-03-17T17:07:41.435Z,8.93
2019-03-17T17:10:56.179Z,8.87
2019-03-17T17:14:07.334Z,8.89
2019-03-17T17:17:15.972Z,8.81
2019-03-17T17:20:30.162Z,8.71
2019-03-17T17:23:38.621Z,8.53
2019-03-17T17:26:47.216Z,8.52
2019-03-17T17:29:55.731Z,8.46
2019-03-17T17:33:12.090Z,8.44
2019-03-17T17:36:25.117Z,8.46
2019-03-17T17:39:36.740Z,8.42
2019-03-17T17:42:48.171Z,8.26
2019-03-17T17:45:58.935Z,8.25
2019-03-17T17:49:09.312Z,8.27
2019-03-17T17:52:18.173Z,8.16
2019-03-17T17:55:35.027Z,8.19
2019-03-17T17:58:44.195Z,8.25
2019-03-17T18:01:52.979Z,8.23
2019-03-17T18:05:05.016Z,8.28
2019-03-17T18:08:13.527Z,8.30
2019-03-17T18:11:22.037Z,8.21
2019-03-17T18:14:30.506Z,8.11
2019-03-17T18:17:38.991Z,8.00
2019-03-17T18:20:57.677Z,7.98
2019-03-17T18:24:06.145Z,7.88
2019-03-17T18:27:14.639Z,7.84
2019-03-17T18:30:23.128Z,7.80
2019-03-17T18:33:42.008Z,7.85
2019-03-17T18:36:50.518Z,7.78
2019-03-17T18:39:59.053Z,7.78
2019-03-17T18:43:07.539Z,7.79
2019-03-17T18:46:16.028Z,7.72
2019-03-17T18:49:34.814Z,7.66
2019-03-17T18:52:43.420Z,7.37
2019-03-17T18:55:51.952Z,7.53
2019-03-17T18:59:00.588Z,7.44
2019-03-17T19:02:09.194Z,7.51
2019-03-17T19:05:19.926Z,7.37
2019-03-17T19:08:38.117Z,7.40
2019-03-17T19:11:46.699Z,7.33
2019-03-17T19:14:55.210Z,7.29
2019-03-17T19:18:08.331Z,7.32
2019-03-17T19:21:27.190Z,7.29
2019-03-17T19:24:35.866Z,7.21
2019-03-17T19:27:44.372Z,7.17
2019-03-17T19:30:52.841Z,7.08
2019-03-17T19:34:01.323Z,7.11
2019-03-17T19:37:20.068Z,7.20
2019-03-17T19:40:28.821Z,7.04
2019-03-17T19:43:37.427Z,6.97
2019-03-17T19:46:45.907Z,6.92
2019-03-17T19:49:54.507Z,6.79
2019-03-17T19:53:03.150Z,6.68
2019-03-17T19:56:21.812Z,6.71
2019-03-17T19:59:30.341Z,6.57
2019-03-17T20:02:38.809Z,6.56
2019-03-17T20:05:47.527Z,6.44
2019-03-17T20:08:56.100Z,6.47
2019-03-17T20:12:14.946Z,6.46
2019-03-17T20:15:23.477Z,6.30
2019-03-17T20:18:32.091Z,6.24
2019-03-17T20:21:40.765Z,6.25
2019-03-17T20:24:49.285Z,6.21
2019-03-17T20:27:57.791Z,6.16
2019-03-17T20:31:16.518Z,6.25
2019-03-17T20:34:25.004Z,6.07
2019-03-17T20:37:33.487Z,6.01
2019-03-17T20:40:42.374Z,6.06
2019-03-17T20:43:50.831Z,6.03
2019-03-17T20:47:09.508Z,6.07
2019-03-17T20:50:18.030Z,5.95
2019-03-17T20:53:26.499Z,6.01
2019-03-17T20:56:35.026Z,6.04
2019-03-17T20:59:43.577Z,6.10
2019-03-17T21:03:02.435Z,6.16
2019-03-17T21:06:11.035Z,6.17
2019-03-17T21:09:19.498Z,6.10
2019-03-17T21:12:27.986Z,6.01
2019-03-17T21:15:37.021Z,5.96
2019-03-17T21:18:45.551Z,5.96
2019-03-17T21:21:52.620Z,5.88
2019-03-17T21:25:11.856Z,5.92
2019-03-17T21:28:30.899Z,5.83
2019-03-17T21:31:39.668Z,5.77
2019-03-17T21:34:48.130Z,5.81
2019-03-17T21:37:56.626Z,5.76
2019-03-17T21:41:07.160Z,5.77
2019-03-17T21:44:15.396Z,5.77
2019-03-17T21:47:34.205Z,5.80
2019-03-17T21:50:42.793Z,5.74
2019-03-17T21:53:51.367Z,5.75
2019-03-17T21:56:59.861Z,5.74
2019-03-17T22:00:10.663Z,5.66
2019-03-17T22:03:22.089Z,5.70
2019-03-17T22:06:40.777Z,5.66
2019-03-17T22:09:49.512Z,5.61
2019-03-17T22:12:58.084Z,5.57
2019-03-17T22:16:06.610Z,5.43
2019-03-17T22:19:15.076Z,5.47
2019-03-17T22:22:23.574Z,5.46
2019-03-17T22:25:42.455Z,5.54
2019-03-17T22:28:50.943Z,5.45
2019-03-17T22:31:59.436Z,5.49
2019-03-17T22:35:08.623Z,5.57
2019-03-17T22:38:17.106Z,5.54
2019-03-17T22:41:25.570Z,5.46
2019-03-17T22:44:44.249Z,5.54
2019-03-17T22:47:52.830Z,5.55
2019-03-17T22:51:01.413Z,5.39
2019-03-17T22:54:10.019Z,5.38
2019-03-17T22:57:18.485Z,5.41
2019-03-17T23:00:42.755Z,5.47
2019-03-17T23:03:51.380Z,5.43
2019-03-17T23:07:10.146Z,5.58
2019-03-17T23:10:18.747Z,5.54
2019-03-17T23:13:27.255Z,5.59
2019-03-17T23:16:35.772Z,5.68
2019-03-17T23:19:44.271Z,5.62
2019-03-17T23:23:03.123Z,5.78
2019-03-17T23:26:11.718Z,5.66
2019-03-17T23:29:20.319Z,5.72
2019-03-17T23:32:28.861Z,5.74
2019-03-17T23:35:37.465Z,5.71
2019-03-17T23:38:46.063Z,5.72
2019-03-17T23:42:04.872Z,5.68
2019-03-17T23:45:13.702Z,5.67
2019-03-17T23:48:22.272Z,5.64
2019-03-17T23:51:30.767Z,5.44
2019-03-17T23:54:39.369Z,5.40
2019-03-17T23:57:47.959Z,5.37
